Albany, NY (12203)

8:04 AM EST on March 05, 2015 (GMT -0500)
Wellington Ave | Change Station
CLOSE
Current Station
Personal Weather Station
Location: Albany, NY
Elevation: 260 ft
Nearby Weather Stations

Elev 260 ft 42.67 °N, 73.82 °W | Updated 3 seconds ago

Overcast
Overcast
24.3 °F
Feels Like 13 °F
N
11.5
Wind Variable Wind from NW
Gusts 24.2 mph

Today
High -- | Low -- °F
--% Chance of Precip.
Yesterday
High -- | Low -- °F
Precip. -- in
6:24 AM 5:49 PM
Full, 100% visible
Pressure 30.14 in
Visibility 10.0 miles
Clouds Few 5000 ft
Mostly Cloudy 13000 ft
Overcast 15000 ft
Windchill 13 °F
Dew Point 5 °F
Humidity 43%
Rainfall in
Snow Depth Not available.
UV 0 out of 12
Pollen .40 out of 12
Air Quality Not available.
Flu Activity Not available.
METAR KALB 051251Z 31010G18KT 10SM FEW050 BKN130 OVC150 M05/M16 A3012 RMK AO2 SLP204 T10501156

More Conditions Fewer Conditions

Pressure 30.14 in
Visibility 10.0 miles
Clouds Few 5000 ft
Mostly Cloudy 13000 ft
Overcast 15000 ft
Windchill 13 °F
Dew Point 5 °F
Humidity 43%
Rainfall in
Snow Depth Not available.
UV 0 out of 12
Pollen .40 out of 12
Air Quality Not available.
Flu Activity Not available.
METAR KALB 051251Z 31010G18KT 10SM FEW050 BKN130 OVC150 M05/M16 A3012 RMK AO2 SLP204 T10501156

More Conditions Fewer Conditions

10-Day Weather Forecast

Almanac

Astronomy

Mar. 05, 2015 Rise Set
Actual Time
Civil Twilight
Nautical Twilight
Astronomical Twilight
Moon
Length of Visible Light
Length of Day
Tomorrow will be .
, % of the Moon is Illuminated

Today's Extremes

State Highs State Lows

Community

WunderPhotos

Upload Photos

1,802,749 photos uploaded!

WunderBlogs® & News

Nearby

Air Quality

  Air Quality AQ Index Pollutant
Not available.

Snow Depth

Station Depth Elevation

Earthquake Activity

City Distance Mag. Time & Date
Minimum magnitude displayed is 2.5.

Coastal Water Temperatures

Place Temperature

Nearby Weather Stations